Time;durP1;ratioP1;P1;durP2;ratioP2;P2;SDS_P1;SDS_P2;PMS_P1;PMS_P2;Temp;Humidity;BMP_temperature;BMP_pressure;BME280_temperature;BME280_humidity;BME280_pressure;Samples;Min_cycle;Max_cycle;Signal;HPM_P1;HPM_P2
2021/11/22 00:00:52;;;;;;;;;;;4.60;99.90;;;;;;5134259;27;19924;-53
2021/11/22 00:03:21;;;;;;;;;;;4.50;99.90;;;;;;5134741;27;19949;-53
2021/11/22 00:05:48;;;;;;;;;;;4.50;99.90;;;;;;5140849;27;20381;-53
2021/11/22 00:08:15;;;;;;;;;;;4.50;99.90;;;;;;5144236;27;19924;-52
2021/11/22 00:10:42;;;;;;;;;;;4.50;99.90;;;;;;5138698;27;19931;-53
2021/11/22 00:13:09;;;;;;;;;;;4.50;99.90;;;;;;5129400;27;19923;-53
2021/11/22 00:15:36;;;;;;;;;;;4.50;99.90;;;;;;5129377;27;19923;-54
2021/11/22 00:18:03;;;;;;;;;;;4.50;99.90;;;;;;5128133;27;19927;-53
2021/11/22 00:20:31;;;;;;;;;;;4.50;99.90;;;;;;5136480;27;19976;-52
2021/11/22 00:22:58;;;;;;;;;;;4.40;99.90;;;;;;5134879;27;19969;-53
2021/11/22 00:25:25;;;;;;;;;;;4.50;99.90;;;;;;5130198;27;19957;-53
2021/11/22 00:27:52;;;;;;;;;;;4.50;99.90;;;;;;5131463;27;19935;-53
2021/11/22 00:30:19;;;;;;;;;;;4.40;99.90;;;;;;5130809;27;20338;-53
2021/11/22 00:32:46;;;;;;;;;;;4.30;99.90;;;;;;5128069;27;19923;-53
2021/11/22 00:35:14;;;;;;;;;;;4.30;99.90;;;;;;5122194;27;19924;-53
2021/11/22 00:37:44;;;;;;;;;;;4.30;99.90;;;;;;5133000;27;19924;-51
2021/11/22 00:40:13;;;;;;;;;;;4.30;99.90;;;;;;5134095;27;20002;-56
2021/11/22 00:42:40;;;;;;;;;;;4.30;99.90;;;;;;5131519;27;19992;-52
2021/11/22 00:45:07;;;;;;;;;;;4.30;99.90;;;;;;5133329;27;19931;-53
2021/11/22 00:47:35;;;;;;;;;;;4.20;99.90;;;;;;5132799;27;20346;-52
2021/11/22 00:50:03;;;;;;;;;;;4.20;99.90;;;;;;5132618;27;20364;-55
2021/11/22 00:52:30;;;;;;;;;;;4.20;99.90;;;;;;5133874;27;20436;-54
2021/11/22 00:54:58;;;;;;;;;;;4.20;99.90;;;;;;5134373;27;19924;-55
2021/11/22 00:57:25;;;;;;;;;;;4.20;99.90;;;;;;5126654;27;19923;-54
2021/11/22 00:59:51;;;;;;;;;;;4.20;99.90;;;;;;5138621;27;19980;-53
2021/11/22 01:02:18;;;;;;;;;;;4.20;99.90;;;;;;5129413;27;19923;-53
2021/11/22 01:04:45;;;;;;;;;;;4.20;99.90;;;;;;5125193;27;19928;-54
2021/11/22 01:07:11;;;;;;;;;;;4.30;99.90;;;;;;5128577;27;19928;-52
2021/11/22 01:09:38;;;;;;;;;;;4.30;99.90;;;;;;5137193;27;19968;-54
2021/11/22 01:12:07;;;;;;;;;;;4.30;99.90;;;;;;5129849;27;19924;-55
2021/11/22 01:14:34;;;;;;;;;;;4.30;99.90;;;;;;5132933;27;19931;-54
2021/11/22 01:17:01;;;;;;;;;;;4.30;99.90;;;;;;5133048;27;20124;-55
2021/11/22 01:19:28;;;;;;;;;;;4.20;99.90;;;;;;5132060;27;19949;-54
2021/11/22 01:21:55;;;;;;;;;;;4.30;99.90;;;;;;5129298;27;19923;-54
2021/11/22 01:24:21;;;;;;;;;;;4.30;99.90;;;;;;5129233;27;19928;-53
2021/11/22 01:26:48;;;;;;;;;;;4.30;99.90;;;;;;5138332;27;19980;-53
2021/11/22 01:29:16;;;;;;;;;;;4.20;99.90;;;;;;5128711;27;19924;-53
2021/11/22 01:31:43;;;;;;;;;;;4.20;99.90;;;;;;5134348;27;20338;-54
2021/11/22 01:34:10;;;;;;;;;;;4.30;99.90;;;;;;5126494;28;19943;-53
2021/11/22 01:36:37;;;;;;;;;;;4.20;99.90;;;;;;5128161;27;19924;-54
2021/11/22 01:39:04;;;;;;;;;;;4.20;99.90;;;;;;5127623;27;19923;-54
2021/11/22 01:41:30;;;;;;;;;;;4.20;99.90;;;;;;5128487;27;19969;-53
2021/11/22 01:43:57;;;;;;;;;;;4.20;99.90;;;;;;5128882;28;19975;-52
2021/11/22 01:46:26;;;;;;;;;;;4.20;99.90;;;;;;5137698;27;19952;-53
2021/11/22 01:48:56;;;;;;;;;;;4.20;99.90;;;;;;5138472;27;19935;-53
2021/11/22 01:51:22;;;;;;;;;;;4.20;99.90;;;;;;5128911;27;19928;-54
2021/11/22 01:53:49;;;;;;;;;;;4.20;99.90;;;;;;5132156;27;19988;-54
2021/11/22 01:56:16;;;;;;;;;;;4.20;99.90;;;;;;5132456;27;19969;-54
2021/11/22 01:58:43;;;;;;;;;;;4.20;99.90;;;;;;5136942;27;19984;-54
2021/11/22 02:01:09;;;;;;;;;;;4.20;99.90;;;;;;5136497;27;19927;-54
2021/11/22 02:03:38;;;;;;;;;;;4.30;99.90;;;;;;5136966;27;19923;-54
2021/11/22 02:06:05;;;;;;;;;;;4.30;99.90;;;;;;5137040;27;19976;-53
2021/11/22 02:08:32;;;;;;;;;;;4.40;99.90;;;;;;5136582;27;20018;-54
2021/11/22 02:10:59;;;;;;;;;;;4.40;99.90;;;;;;5136319;27;19927;-54
2021/11/22 02:13:26;;;;;;;;;;;4.30;99.90;;;;;;5136814;27;19923;-54
2021/11/22 02:15:53;;;;;;;;;;;4.40;99.90;;;;;;5135830;27;19943;-54
2021/11/22 02:18:19;;;;;;;;;;;4.30;99.90;;;;;;5136948;27;19927;-52
2021/11/22 02:20:48;;;;;;;;;;;4.30;99.90;;;;;;5136397;27;19923;-54
2021/11/22 02:23:15;;;;;;;;;;;4.20;99.90;;;;;;5136350;27;19924;-53
2021/11/22 02:25:43;;;;;;;;;;;4.20;99.90;;;;;;5136537;27;19927;-54
2021/11/22 02:28:11;;;;;;;;;;;4.20;99.90;;;;;;5136298;27;19942;-54
2021/11/22 02:30:38;;;;;;;;;;;4.30;99.90;;;;;;5136121;27;19923;-53
2021/11/22 02:33:06;;;;;;;;;;;4.30;99.90;;;;;;5136073;27;20010;-53
2021/11/22 02:35:34;;;;;;;;;;;4.30;99.90;;;;;;5135964;27;19976;-54
2021/11/22 02:38:02;;;;;;;;;;;4.20;99.90;;;;;;5136237;27;19992;-53
2021/11/22 02:40:29;;;;;;;;;;;4.20;99.90;;;;;;5135904;27;19927;-53
2021/11/22 02:42:56;;;;;;;;;;;4.30;99.90;;;;;;5135373;27;19969;-54
2021/11/22 02:45:22;;;;;;;;;;;4.30;99.90;;;;;;5136120;27;19927;-54
2021/11/22 02:47:50;;;;;;;;;;;4.40;99.90;;;;;;5135743;27;19969;-54
2021/11/22 02:50:19;;;;;;;;;;;4.50;99.90;;;;;;5135775;27;19923;-54
2021/11/22 02:52:46;;;;;;;;;;;4.60;99.90;;;;;;5136118;27;19930;-53
2021/11/22 02:55:15;;;;;;;;;;;4.40;99.90;;;;;;5135585;27;19931;-55
2021/11/22 02:57:42;;;;;;;;;;;4.40;99.90;;;;;;5135622;27;19940;-54
2021/11/22 03:00:10;;;;;;;;;;;4.40;99.90;;;;;;5135970;27;19928;-54
2021/11/22 03:02:37;;;;;;;;;;;4.40;99.90;;;;;;5136055;27;19924;-55
2021/11/22 03:05:04;;;;;;;;;;;4.40;99.90;;;;;;5136028;27;19996;-53
2021/11/22 03:07:31;;;;;;;;;;;4.40;99.90;;;;;;5135890;27;20377;-55
2021/11/22 03:09:58;;;;;;;;;;;4.40;99.90;;;;;;5135324;27;19984;-54
2021/11/22 03:12:26;;;;;;;;;;;4.40;99.90;;;;;;5136039;27;19924;-53
2021/11/22 03:14:53;;;;;;;;;;;4.30;99.90;;;;;;5136190;27;20101;-54
2021/11/22 03:17:20;;;;;;;;;;;4.30;99.90;;;;;;5135492;27;19977;-54
2021/11/22 03:19:46;;;;;;;;;;;4.20;99.90;;;;;;5135429;27;19991;-52
2021/11/22 03:22:13;;;;;;;;;;;4.20;99.90;;;;;;5135938;27;19980;-54
2021/11/22 03:24:40;;;;;;;;;;;4.20;99.90;;;;;;5135402;27;20300;-54
2021/11/22 03:27:07;;;;;;;;;;;4.20;99.90;;;;;;5135293;27;20438;-53
2021/11/22 03:29:35;;;;;;;;;;;4.20;99.90;;;;;;5135632;27;19923;-54
2021/11/22 03:32:02;;;;;;;;;;;4.20;99.90;;;;;;5135032;27;19976;-54
2021/11/22 03:34:29;;;;;;;;;;;4.20;99.90;;;;;;5135806;27;19924;-54
2021/11/22 03:37:00;;;;;;;;;;;4.20;99.90;;;;;;5135473;27;19962;-54
2021/11/22 03:39:27;;;;;;;;;;;4.20;99.90;;;;;;5135112;27;19988;-54
2021/11/22 03:41:55;;;;;;;;;;;4.20;99.90;;;;;;5134977;27;19923;-54
2021/11/22 03:44:22;;;;;;;;;;;4.20;99.90;;;;;;5135522;27;19970;-54
2021/11/22 03:46:51;;;;;;;;;;;4.20;99.90;;;;;;5135128;27;19928;-54
2021/11/22 03:49:18;;;;;;;;;;;4.20;99.90;;;;;;5135591;27;19924;-54
2021/11/22 03:51:45;;;;;;;;;;;4.20;99.90;;;;;;5134691;27;19931;-53
2021/11/22 03:54:12;;;;;;;;;;;4.20;99.90;;;;;;5135148;27;19924;-55
2021/11/22 03:56:39;;;;;;;;;;;4.20;99.90;;;;;;5134840;27;19969;-54
2021/11/22 03:59:06;;;;;;;;;;;4.20;99.90;;;;;;5134970;27;19923;-54
2021/11/22 04:01:32;;;;;;;;;;;4.20;99.90;;;;;;5134803;27;19928;-54
2021/11/22 04:04:01;;;;;;;;;;;4.20;99.90;;;;;;5134894;27;19976;-53
2021/11/22 04:06:28;;;;;;;;;;;4.20;99.90;;;;;;5134753;27;19927;-54
2021/11/22 04:08:54;;;;;;;;;;;4.20;99.90;;;;;;5134639;27;19980;-54
2021/11/22 04:11:21;;;;;;;;;;;4.20;99.90;;;;;;5134762;27;19952;-53
2021/11/22 04:13:48;;;;;;;;;;;4.10;99.90;;;;;;5134649;27;19928;-54
2021/11/22 04:16:15;;;;;;;;;;;4.10;99.90;;;;;;5134824;27;20346;-54
2021/11/22 04:18:42;;;;;;;;;;;4.10;99.90;;;;;;5134424;27;19923;-55
2021/11/22 04:21:11;;;;;;;;;;;4.10;99.90;;;;;;5133261;27;19923;-53
2021/11/22 04:23:38;;;;;;;;;;;4.20;99.90;;;;;;5134254;27;19923;-54
2021/11/22 04:26:06;;;;;;;;;;;4.20;99.90;;;;;;5134489;27;20457;-54
2021/11/22 04:28:32;;;;;;;;;;;4.20;99.90;;;;;;5134212;27;20464;-54
2021/11/22 04:30:59;;;;;;;;;;;4.20;99.90;;;;;;5134233;27;19972;-54
2021/11/22 04:33:26;;;;;;;;;;;4.20;99.90;;;;;;5134179;27;20346;-54
2021/11/22 04:35:53;;;;;;;;;;;4.20;99.90;;;;;;5133858;27;19928;-54
2021/11/22 04:38:21;;;;;;;;;;;4.20;99.90;;;;;;5134522;27;20323;-54
2021/11/22 04:40:47;;;;;;;;;;;4.20;99.90;;;;;;5133958;27;19923;-54
2021/11/22 04:43:14;;;;;;;;;;;4.30;99.90;;;;;;5133884;27;20365;-54
2021/11/22 04:45:41;;;;;;;;;;;4.40;99.90;;;;;;5134040;27;19923;-54
2021/11/22 04:48:08;;;;;;;;;;;4.40;99.90;;;;;;5133571;27;19976;-53
2021/11/22 04:50:35;;;;;;;;;;;4.60;99.90;;;;;;5133779;27;19928;-54
2021/11/22 04:53:04;;;;;;;;;;;4.60;99.90;;;;;;5134218;27;19984;-53
2021/11/22 04:55:33;;;;;;;;;;;4.60;99.90;;;;;;5133604;27;19924;-54
2021/11/22 04:57:59;;;;;;;;;;;4.70;99.90;;;;;;5133943;27;20338;-54
2021/11/22 05:00:26;;;;;;;;;;;4.70;99.90;;;;;;5133128;27;19999;-53
2021/11/22 05:02:54;;;;;;;;;;;4.80;99.90;;;;;;5133651;27;19931;-55
2021/11/22 05:05:21;;;;;;;;;;;4.60;99.90;;;;;;5133891;27;20399;-54
2021/11/22 05:07:48;;;;;;;;;;;4.60;99.90;;;;;;5133416;27;19924;-53
2021/11/22 05:10:17;;;;;;;;;;;4.60;99.90;;;;;;5132223;27;19936;-55
2021/11/22 05:12:45;;;;;;;;;;;4.60;99.90;;;;;;5132843;27;19927;-53
2021/11/22 05:15:13;;;;;;;;;;;4.60;99.90;;;;;;5133464;27;19927;-54
2021/11/22 05:17:40;;;;;;;;;;;4.70;99.90;;;;;;5133484;27;19949;-54
2021/11/22 05:20:07;;;;;;;;;;;4.70;99.90;;;;;;5132919;27;20385;-55
2021/11/22 05:22:34;;;;;;;;;;;4.70;99.90;;;;;;5132387;27;19934;-54
2021/11/22 05:25:03;;;;;;;;;;;4.80;99.90;;;;;;5133308;27;19930;-54
2021/11/22 05:27:30;;;;;;;;;;;4.70;99.90;;;;;;5133174;27;19930;-54
2021/11/22 05:29:58;;;;;;;;;;;4.70;99.90;;;;;;5132920;27;19924;-54
2021/11/22 05:32:25;;;;;;;;;;;4.80;99.90;;;;;;5133199;28;19923;-55
2021/11/22 05:34:53;;;;;;;;;;;4.50;99.90;;;;;;5133343;27;19923;-54
2021/11/22 05:37:20;;;;;;;;;;;4.40;99.90;;;;;;5128669;22;19935;-50
2021/11/22 05:39:48;;;;;;;;;;;4.40;99.90;;;;;;5092124;28;19924;-51
2021/11/22 05:42:15;;;;;;;;;;;4.50;99.90;;;;;;5091798;28;20328;-50
2021/11/22 05:44:42;;;;;;;;;;;4.50;99.90;;;;;;5108171;28;19931;-51
2021/11/22 05:47:11;;;;;;;;;;;4.70;99.90;;;;;;5112117;28;19924;-50
2021/11/22 05:49:38;;;;;;;;;;;4.80;99.90;;;;;;5112301;28;19924;-51
2021/11/22 05:52:06;;;;;;;;;;;4.80;99.90;;;;;;5111721;28;19924;-50
2021/11/22 05:54:32;;;;;;;;;;;4.90;99.90;;;;;;5099011;28;19925;-51
2021/11/22 05:56:59;;;;;;;;;;;4.70;99.90;;;;;;5097749;28;19923;-50
2021/11/22 05:59:26;;;;;;;;;;;4.70;99.90;;;;;;5112371;28;20389;-51
2021/11/22 06:01:53;;;;;;;;;;;4.60;99.90;;;;;;5111866;28;19924;-50
2021/11/22 06:04:22;;;;;;;;;;;4.70;99.90;;;;;;5107474;28;19924;-50
2021/11/22 06:06:49;;;;;;;;;;;4.80;99.90;;;;;;5111935;28;19993;-50
2021/11/22 06:09:15;;;;;;;;;;;4.90;99.90;;;;;;5112203;28;19984;-50
2021/11/22 06:11:43;;;;;;;;;;;5.00;99.90;;;;;;5110051;28;19977;-51
2021/11/22 06:14:10;;;;;;;;;;;5.00;99.90;;;;;;5111903;28;19923;-50
2021/11/22 06:16:37;;;;;;;;;;;5.00;99.90;;;;;;5111709;28;20352;-51
2021/11/22 06:19:04;;;;;;;;;;;5.00;99.90;;;;;;5112178;28;19928;-50
2021/11/22 06:21:32;;;;;;;;;;;4.80;99.90;;;;;;5111934;28;20401;-50
2021/11/22 06:24:01;;;;;;;;;;;4.80;99.90;;;;;;5111656;28;19973;-50
2021/11/22 06:26:27;;;;;;;;;;;4.70;99.90;;;;;;5106073;28;19932;-50
2021/11/22 06:28:54;;;;;;;;;;;4.80;99.90;;;;;;5103742;28;20006;-50
2021/11/22 06:31:21;;;;;;;;;;;5.00;99.90;;;;;;5111420;28;19973;-51
2021/11/22 06:33:48;;;;;;;;;;;5.00;99.90;;;;;;5115688;28;19930;-50
2021/11/22 06:36:15;;;;;;;;;;;5.10;99.90;;;;;;5115472;28;19975;-52
2021/11/22 06:38:43;;;;;;;;;;;5.00;99.90;;;;;;5115737;28;19931;-51
2021/11/22 06:41:10;;;;;;;;;;;4.90;99.90;;;;;;5115528;28;19928;-50
2021/11/22 06:43:37;;;;;;;;;;;4.90;99.90;;;;;;5106850;28;20401;-50
2021/11/22 06:46:04;;;;;;;;;;;4.80;99.90;;;;;;5107637;28;19923;-50
2021/11/22 06:48:31;;;;;;;;;;;4.80;99.90;;;;;;5115446;28;19928;-50
2021/11/22 06:50:58;;;;;;;;;;;4.90;99.90;;;;;;5115142;28;19936;-50
2021/11/22 06:53:24;;;;;;;;;;;4.80;99.90;;;;;;5115423;28;19928;-50
2021/11/22 06:55:53;;;;;;;;;;;4.60;99.90;;;;;;5115500;28;19981;-51
2021/11/22 06:58:20;;;;;;;;;;;4.70;99.90;;;;;;5115472;28;19924;-50
2021/11/22 07:00:47;;;;;;;;;;;4.80;99.90;;;;;;5112937;28;20385;-50
2021/11/22 07:03:13;;;;;;;;;;;4.60;99.90;;;;;;5107906;28;19928;-50
2021/11/22 07:05:40;;;;;;;;;;;4.60;99.90;;;;;;5104828;28;19981;-50
2021/11/22 07:08:08;;;;;;;;;;;4.60;99.90;;;;;;5104877;28;19961;-52
2021/11/22 07:10:35;;;;;;;;;;;4.50;99.90;;;;;;5103972;28;19945;-49
2021/11/22 07:13:04;;;;;;;;;;;4.50;99.90;;;;;;5107732;28;19928;-49
2021/11/22 07:15:34;;;;;;;;;;;4.50;99.90;;;;;;5094609;28;20013;-50
2021/11/22 07:18:01;;;;;;;;;;;4.60;99.90;;;;;;5094317;28;19924;-51
2021/11/22 07:20:28;;;;;;;;;;;4.50;99.90;;;;;;5106644;28;19976;-51
2021/11/22 07:22:55;;;;;;;;;;;4.70;99.90;;;;;;5099595;28;20435;-50
2021/11/22 07:25:22;;;;;;;;;;;4.90;99.90;;;;;;5107513;28;19928;-51
2021/11/22 07:27:49;;;;;;;;;;;5.00;99.90;;;;;;5094363;28;19977;-49
2021/11/22 07:30:19;;;;;;;;;;;5.00;99.90;;;;;;5105514;28;19982;-50
2021/11/22 07:32:46;;;;;;;;;;;5.10;99.90;;;;;;5106307;28;19927;-51
2021/11/22 07:35:14;;;;;;;;;;;5.10;99.90;;;;;;5100012;28;19924;-50
2021/11/22 07:37:41;;;;;;;;;;;5.00;99.90;;;;;;5101614;28;19924;-50
2021/11/22 07:40:09;;;;;;;;;;;4.80;99.90;;;;;;5095587;28;20332;-51
2021/11/22 07:42:35;;;;;;;;;;;4.80;99.90;;;;;;5102702;28;19968;-50
2021/11/22 07:45:03;;;;;;;;;;;4.80;99.90;;;;;;5107490;28;19931;-50
2021/11/22 07:47:31;;;;;;;;;;;4.70;99.90;;;;;;5114436;28;19946;-50
2021/11/22 07:49:57;;;;;;;;;;;4.70;99.90;;;;;;5113690;28;20369;-49
2021/11/22 07:52:24;;;;;;;;;;;4.60;99.90;;;;;;5111766;28;19924;-51
2021/11/22 07:54:51;;;;;;;;;;;4.60;99.90;;;;;;5114098;28;19928;-50
2021/11/22 07:57:18;;;;;;;;;;;4.70;99.90;;;;;;5113963;28;19923;-50
2021/11/22 07:59:45;;;;;;;;;;;4.70;99.90;;;;;;5114014;28;19924;-49
2021/11/22 08:02:12;;;;;;;;;;;4.60;99.90;;;;;;5113940;28;19924;-49
2021/11/22 08:04:40;;;;;;;;;;;4.60;99.90;;;;;;5114084;28;19947;-50
2021/11/22 08:07:13;;;;;;;;;;;4.60;99.90;;;;;;5113960;28;19924;-49
2021/11/22 08:09:46;;;;;;;;;;;4.60;99.90;;;;;;5113873;28;19928;-50
2021/11/22 08:12:25;;;;;;;;;;;4.60;99.90;;;;;;5112234;28;19927;-51
2021/11/22 08:14:53;;;;;;;;;;;4.60;99.90;;;;;;5105007;28;20023;-50
2021/11/22 08:17:20;;;;;;;;;;;4.60;99.90;;;;;;5103159;28;19939;-50
2021/11/22 08:19:49;;;;;;;;;;;4.60;99.90;;;;;;5097889;28;19924;-51
2021/11/22 08:22:15;;;;;;;;;;;4.60;99.90;;;;;;5093096;28;20378;-50
2021/11/22 08:24:44;;;;;;;;;;;4.60;99.90;;;;;;5105624;28;20364;-51
2021/11/22 08:27:11;;;;;;;;;;;4.80;99.90;;;;;;5102905;28;19924;-51
2021/11/22 08:29:38;;;;;;;;;;;4.70;99.90;;;;;;5103910;28;19924;-50
2021/11/22 08:32:05;;;;;;;;;;;4.80;99.90;;;;;;5099404;28;19924;-50
2021/11/22 08:34:31;;;;;;;;;;;4.80;99.90;;;;;;5113015;28;19923;-51
2021/11/22 08:37:00;;;;;;;;;;;4.80;99.90;;;;;;5100435;28;19924;-50
2021/11/22 08:39:26;;;;;;;;;;;4.80;99.90;;;;;;5112492;28;19923;-51
2021/11/22 08:41:53;;;;;;;;;;;4.80;99.90;;;;;;5111406;28;19927;-50
2021/11/22 08:44:20;;;;;;;;;;;4.80;99.90;;;;;;5100952;28;19927;-51
2021/11/22 08:46:47;;;;;;;;;;;4.90;99.90;;;;;;5107782;28;19977;-50
2021/11/22 08:49:15;;;;;;;;;;;4.90;99.90;;;;;;5107202;28;20027;-50
2021/11/22 08:51:44;;;;;;;;;;;4.90;99.90;;;;;;5102164;28;19924;-51
2021/11/22 08:54:12;;;;;;;;;;;5.10;99.90;;;;;;5105340;28;20293;-50
2021/11/22 08:56:39;;;;;;;;;;;5.10;99.90;;;;;;5103696;28;19977;-50
2021/11/22 08:59:06;;;;;;;;;;;5.10;99.90;;;;;;5105019;28;21598;-51
2021/11/22 09:01:33;;;;;;;;;;;5.20;99.90;;;;;;5112068;28;19924;-50
2021/11/22 09:04:00;;;;;;;;;;;5.30;99.90;;;;;;5107203;28;19932;-49
2021/11/22 09:06:27;;;;;;;;;;;5.30;99.90;;;;;;5110843;28;19932;-51
2021/11/22 09:08:53;;;;;;;;;;;5.40;99.90;;;;;;5105433;28;19928;-52
2021/11/22 09:11:21;;;;;;;;;;;5.40;99.90;;;;;;5103847;28;19924;-50
2021/11/22 09:13:48;;;;;;;;;;;5.40;99.90;;;;;;5095477;28;19924;-50
2021/11/22 09:16:15;;;;;;;;;;;5.50;99.90;;;;;;5092230;28;19970;-50
2021/11/22 09:18:42;;;;;;;;;;;5.60;99.90;;;;;;5100149;28;19923;-51
2021/11/22 09:21:09;;;;;;;;;;;5.70;99.90;;;;;;5108951;28;19924;-51
2021/11/22 09:23:35;;;;;;;;;;;5.80;99.90;;;;;;5104133;28;19924;-50
2021/11/22 09:26:02;;;;;;;;;;;5.70;99.90;;;;;;5110184;28;20343;-50
2021/11/22 09:28:33;;;;;;;;;;;5.80;99.90;;;;;;5102214;28;19961;-49
2021/11/22 09:31:00;;;;;;;;;;;5.90;99.90;;;;;;5103447;28;19931;-50
2021/11/22 09:33:27;;;;;;;;;;;5.90;99.90;;;;;;5099351;28;19934;-50
2021/11/22 09:35:54;;;;;;;;;;;6.00;99.90;;;;;;5109261;28;20000;-50
2021/11/22 09:38:21;;;;;;;;;;;6.20;99.90;;;;;;5104892;28;19977;-50
2021/11/22 09:40:47;;;;;;;;;;;6.10;99.90;;;;;;5101715;28;19939;-50
2021/11/22 09:43:14;;;;;;;;;;;6.10;99.90;;;;;;5105514;28;19928;-51
2021/11/22 09:45:42;;;;;;;;;;;6.20;99.90;;;;;;5100918;28;20291;-49
2021/11/22 09:48:09;;;;;;;;;;;6.10;99.90;;;;;;5101472;28;19954;-49
2021/11/22 09:50:36;;;;;;;;;;;5.90;99.90;;;;;;5110455;28;19928;-52
2021/11/22 09:53:04;;;;;;;;;;;5.90;99.90;;;;;;5102913;28;19973;-50
2021/11/22 09:55:31;;;;;;;;;;;6.00;99.90;;;;;;5100827;28;19923;-50
2021/11/22 09:57:59;;;;;;;;;;;6.00;99.90;;;;;;5107645;28;19923;-51
2021/11/22 10:00:33;;;;;;;;;;;6.00;99.90;;;;;;5104829;28;19976;-49
2021/11/22 10:03:01;;;;;;;;;;;6.00;99.90;;;;;;5091744;28;20386;-50
2021/11/22 10:05:30;;;;;;;;;;;6.00;99.90;;;;;;5102410;28;19928;-50
2021/11/22 10:08:00;;;;;;;;;;;6.00;99.90;;;;;;5114206;28;19931;-51
2021/11/22 10:10:32;;;;;;;;;;;6.10;99.90;;;;;;5108317;28;19924;-50
2021/11/22 10:13:00;;;;;;;;;;;6.20;99.90;;;;;;5105441;28;20018;-51
2021/11/22 10:15:31;;;;;;;;;;;6.40;99.90;;;;;;5110111;27;20014;-51
2021/11/22 10:17:57;;;;;;;;;;;6.50;99.90;;;;;;5101277;28;19974;-49
2021/11/22 10:20:27;;;;;;;;;;;6.60;99.90;;;;;;5106452;27;19935;-50
2021/11/22 10:22:56;;;;;;;;;;;6.60;99.90;;;;;;5101793;28;19928;-50
2021/11/22 10:25:30;;;;;;;;;;;6.50;99.90;;;;;;5108702;28;19924;-52
2021/11/22 10:28:00;;;;;;;;;;;6.50;99.90;;;;;;5116568;27;19923;-51
2021/11/22 10:30:28;;;;;;;;;;;6.60;99.90;;;;;;5098780;27;19971;-51
2021/11/22 10:32:55;;;;;;;;;;;6.70;99.90;;;;;;5101751;28;19927;-50
2021/11/22 10:35:22;;;;;;;;;;;6.70;99.90;;;;;;5102019;28;19970;-50
2021/11/22 10:37:58;;;;;;;;;;;6.70;99.90;;;;;;5109928;27;20335;-51
2021/11/22 10:40:26;;;;;;;;;;;6.60;99.90;;;;;;5100117;28;19927;-50
2021/11/22 10:42:53;;;;;;;;;;;6.50;99.90;;;;;;5104058;28;19943;-49
2021/11/22 10:45:26;;;;;;;;;;;6.40;99.90;;;;;;5097278;28;20317;-51
2021/11/22 10:48:00;;;;;;;;;;;6.40;99.90;;;;;;5103768;28;19928;-49
2021/11/22 10:50:30;;;;;;;;;;;6.40;99.90;;;;;;5107054;28;20372;-50
2021/11/22 10:53:02;;;;;;;;;;;6.30;99.90;;;;;;5100297;27;19967;-49
2021/11/22 10:55:30;;;;;;;;;;;6.30;99.90;;;;;;5108194;28;19926;-50
2021/11/22 10:58:00;;;;;;;;;;;6.30;99.90;;;;;;5099317;27;20007;-50
2021/11/22 11:00:29;;;;;;;;;;;6.30;99.90;;;;;;5105041;28;19923;-50
2021/11/22 11:02:57;;;;;;;;;;;6.30;99.90;;;;;;5104829;28;20015;-50
2021/11/22 11:05:27;;;;;;;;;;;6.40;99.90;;;;;;5106293;28;20412;-49
2021/11/22 11:07:58;;;;;;;;;;;6.50;99.90;;;;;;5105964;27;20336;-52
2021/11/22 11:10:26;;;;;;;;;;;6.40;99.90;;;;;;5105471;27;20019;-50
2021/11/22 11:12:55;;;;;;;;;;;6.50;99.90;;;;;;5106047;27;19935;-50
2021/11/22 11:15:22;;;;;;;;;;;6.60;99.90;;;;;;5117199;27;19965;-49
2021/11/22 11:17:48;;;;;;;;;;;6.70;99.90;;;;;;5103243;28;19931;-50
2021/11/22 11:20:17;;;;;;;;;;;6.70;99.90;;;;;;5095725;28;19931;-49
2021/11/22 11:22:46;;;;;;;;;;;6.80;99.90;;;;;;5110169;27;20007;-51
2021/11/22 11:25:14;;;;;;;;;;;6.70;99.90;;;;;;5102778;28;19977;-49
2021/11/22 11:27:43;;;;;;;;;;;6.60;99.90;;;;;;5105251;27;19927;-51
2021/11/22 11:30:11;;;;;;;;;;;6.50;99.90;;;;;;5110436;27;19935;-52
2021/11/22 11:32:41;;;;;;;;;;;6.50;99.90;;;;;;5111770;27;20382;-49
2021/11/22 11:35:14;;;;;;;;;;;6.50;99.90;;;;;;5102888;27;19936;-50
2021/11/22 11:37:49;;;;;;;;;;;6.60;99.90;;;;;;5106631;27;19931;-50
2021/11/22 11:40:25;;;;;;;;;;;6.70;99.90;;;;;;5111360;27;19928;-52
2021/11/22 11:43:09;;;;;;;;;;;6.70;99.90;;;;;;5102289;28;20298;-49
2021/11/22 11:45:38;;;;;;;;;;;6.60;99.90;;;;;;5103807;27;19923;-50
2021/11/22 11:48:11;;;;;;;;;;;6.50;99.90;;;;;;5107271;27;19997;-52
2021/11/22 11:50:43;;;;;;;;;;;6.50;99.90;;;;;;5109825;27;19984;-49
2021/11/22 11:53:11;;;;;;;;;;;6.40;99.90;;;;;;5107088;27;20030;-50
2021/11/22 11:55:38;;;;;;;;;;;6.40;99.90;;;;;;5104270;27;19928;-51
2021/11/22 11:58:17;;;;;;;;;;;6.40;99.90;;;;;;5104162;27;19928;-51
2021/11/22 12:00:51;;;;;;;;;;;6.40;99.90;;;;;;5107167;27;19991;-51
2021/11/22 12:03:17;;;;;;;;;;;6.40;99.90;;;;;;5141403;22;19923;-52
2021/11/22 12:05:45;;;;;;;;;;;6.40;99.90;;;;;;5136934;27;19923;-52
2021/11/22 12:08:22;;;;;;;;;;;6.40;99.90;;;;;;5130446;27;19931;-53
2021/11/22 12:10:49;;;;;;;;;;;6.50;99.90;;;;;;5122926;27;19923;-53
2021/11/22 12:13:17;;;;;;;;;;;6.50;99.90;;;;;;5127681;27;19976;-53
2021/11/22 12:15:45;;;;;;;;;;;6.40;99.90;;;;;;5124013;27;19980;-52
2021/11/22 12:18:12;;;;;;;;;;;6.50;99.90;;;;;;5123005;27;20014;-52
2021/11/22 12:20:49;;;;;;;;;;;6.50;99.90;;;;;;5119404;27;19923;-52
2021/11/22 12:23:18;;;;;;;;;;;6.60;99.90;;;;;;5126221;27;19997;-52
2021/11/22 12:25:46;;;;;;;;;;;6.80;99.90;;;;;;5124000;27;19984;-52
2021/11/22 12:28:14;;;;;;;;;;;6.90;99.90;;;;;;5121562;27;20064;-52
2021/11/22 12:30:43;;;;;;;;;;;7.00;99.90;;;;;;5123875;27;19924;-52
2021/11/22 12:33:25;;;;;;;;;;;7.10;99.90;;;;;;5125181;27;19923;-53
2021/11/22 12:35:52;;;;;;;;;;;7.20;99.90;;;;;;5121004;27;19927;-53
2021/11/22 12:38:19;;;;;;;;;;;7.40;99.90;;;;;;5123519;27;19938;-52
2021/11/22 12:40:47;;;;;;;;;;;7.30;99.90;;;;;;5125793;27;19949;-53
2021/11/22 12:43:15;;;;;;;;;;;7.40;99.90;;;;;;5125697;27;19938;-53
2021/11/22 12:45:56;;;;;;;;;;;7.40;99.90;;;;;;5120274;27;19931;-53
2021/11/22 12:48:26;;;;;;;;;;;7.50;99.90;;;;;;5125185;27;20005;-52
2021/11/22 12:50:56;;;;;;;;;;;7.40;99.90;;;;;;5123982;27;19931;-53
2021/11/22 12:53:23;;;;;;;;;;;7.30;99.90;;;;;;5127052;27;19963;-52
2021/11/22 12:55:50;;;;;;;;;;;7.30;99.90;;;;;;5121472;27;19923;-53
2021/11/22 12:58:21;;;;;;;;;;;7.60;99.90;;;;;;5120952;27;20159;-53
2021/11/22 13:00:48;;;;;;;;;;;7.30;99.90;;;;;;5122213;27;19968;-53
2021/11/22 13:03:17;;;;;;;;;;;7.20;99.90;;;;;;5124165;27;19931;-53
2021/11/22 13:05:48;;;;;;;;;;;7.30;99.90;;;;;;5124515;27;19939;-53
2021/11/22 13:08:34;;;;;;;;;;;7.20;99.90;;;;;;5122240;27;19962;-52
2021/11/22 13:11:02;;;;;;;;;;;7.20;99.90;;;;;;5124764;27;19933;-52
2021/11/22 13:13:40;;;;;;;;;;;7.30;99.90;;;;;;5120666;27;19936;-53
2021/11/22 13:16:11;;;;;;;;;;;7.50;99.90;;;;;;5124300;27;20395;-52
2021/11/22 13:18:43;;;;;;;;;;;7.30;99.90;;;;;;5123972;27;20402;-52
2021/11/22 13:21:12;;;;;;;;;;;7.30;99.90;;;;;;5122885;27;19927;-52
2021/11/22 13:23:39;;;;;;;;;;;7.00;99.90;;;;;;5121252;27;19924;-52
2021/11/22 13:26:09;;;;;;;;;;;6.90;99.90;;;;;;5124552;27;20346;-52
2021/11/22 13:28:44;;;;;;;;;;;6.90;99.90;;;;;;5132552;27;19923;-53
2021/11/22 13:31:11;;;;;;;;;;;7.00;99.90;;;;;;5133056;27;19927;-53
2021/11/22 13:33:39;;;;;;;;;;;7.20;99.90;;;;;;5132803;27;19923;-52
2021/11/22 13:36:06;;;;;;;;;;;7.20;99.90;;;;;;5112343;28;19981;-52
2021/11/22 13:38:35;;;;;;;;;;;7.20;99.90;;;;;;5112363;28;19928;-52
2021/11/22 13:41:10;;;;;;;;;;;7.00;99.90;;;;;;5112099;28;19924;-52
2021/11/22 13:43:37;;;;;;;;;;;6.90;99.90;;;;;;5116044;28;19957;-52
2021/11/22 13:46:05;;;;;;;;;;;6.80;99.90;;;;;;5116792;28;19928;-52
2021/11/22 13:48:47;;;;;;;;;;;6.80;99.90;;;;;;5124351;27;19977;-52
2021/11/22 13:51:14;;;;;;;;;;;6.70;99.90;;;;;;5136702;27;19924;-52
2021/11/22 13:53:41;;;;;;;;;;;6.50;99.90;;;;;;5137050;27;19992;-52
2021/11/22 13:56:19;;;;;;;;;;;6.60;99.90;;;;;;5136987;27;20380;-52
2021/11/22 13:58:46;;;;;;;;;;;6.60;99.90;;;;;;5137112;27;19984;-52
2021/11/22 14:01:13;;;;;;;;;;;6.60;99.90;;;;;;5136834;27;19923;-53
2021/11/22 14:03:39;;;;;;;;;;;6.80;99.90;;;;;;5118250;27;20362;-53
2021/11/22 14:06:08;;;;;;;;;;;6.60;99.90;;;;;;5116228;28;19924;-52
2021/11/22 14:08:34;;;;;;;;;;;6.70;99.90;;;;;;5116333;28;19976;-52
2021/11/22 14:11:01;;;;;;;;;;;6.70;99.90;;;;;;5116183;28;19977;-52
2021/11/22 14:13:28;;;;;;;;;;;6.70;99.90;;;;;;5116020;28;19969;-53
2021/11/22 14:15:55;;;;;;;;;;;6.80;99.90;;;;;;5121780;27;19924;-52
2021/11/22 14:18:22;;;;;;;;;;;6.70;99.90;;;;;;5130213;27;19923;-52
2021/11/22 14:20:50;;;;;;;;;;;6.80;99.90;;;;;;5135733;27;19927;-52
2021/11/22 14:23:25;;;;;;;;;;;6.80;99.90;;;;;;5122437;27;19996;-52
2021/11/22 14:25:57;;;;;;;;;;;6.70;99.90;;;;;;5124838;27;19951;-52
2021/11/22 14:28:24;;;;;;;;;;;6.90;99.90;;;;;;5115985;28;19924;-52
2021/11/22 14:30:51;;;;;;;;;;;7.00;99.90;;;;;;5115628;27;19924;-52
2021/11/22 14:33:20;;;;;;;;;;;7.00;99.90;;;;;;5115462;28;19924;-52
2021/11/22 14:35:55;;;;;;;;;;;7.20;99.90;;;;;;5115597;28;19988;-52